sensor_id;sensor_type;location;lat;lon;timestamp;pressure;altitude;pressure_sealevel;temperature;humidity
11413;BME280;5762;43.256;26.960;2023-05-23T00:00:29;99325.98;;;14.78;100.00
11413;BME280;5762;43.256;26.960;2023-05-23T00:02:58;99330.17;;;14.75;100.00
11413;BME280;5762;43.256;26.960;2023-05-23T00:05:27;99344.18;;;14.59;100.00
11413;BME280;5762;43.256;26.960;2023-05-23T00:07:59;99348.36;;;14.50;100.00
11413;BME280;5762;43.256;26.960;2023-05-23T00:10:24;99351.95;;;14.42;100.00
11413;BME280;5762;43.256;26.960;2023-05-23T00:12:53;99352.31;;;14.47;100.00
11413;BME280;5762;43.256;26.960;2023-05-23T00:15:22;99361.70;;;14.43;100.00
11413;BME280;5762;43.256;26.960;2023-05-23T00:17:51;99370.61;;;14.52;100.00
11413;BME280;5762;43.256;26.960;2023-05-23T00:20:20;99375.39;;;14.55;100.00
11413;BME280;5762;43.256;26.960;2023-05-23T00:22:49;99374.48;;;14.22;100.00
11413;BME280;5762;43.256;26.960;2023-05-23T00:25:18;99368.67;;;13.82;100.00
11413;BME280;5762;43.256;26.960;2023-05-23T00:27:46;99375.37;;;13.69;100.00
11413;BME280;5762;43.256;26.960;2023-05-23T00:30:15;99378.06;;;13.55;100.00
11413;BME280;5762;43.256;26.960;2023-05-23T00:32:44;99382.67;;;13.63;100.00
11413;BME280;5762;43.256;26.960;2023-05-23T00:35:13;99392.36;;;13.58;100.00
11413;BME280;5762;43.256;26.960;2023-05-23T00:37:42;99386.22;;;13.55;100.00
11413;BME280;5762;43.256;26.960;2023-05-23T00:40:11;99390.27;;;13.49;100.00
11413;BME280;5762;43.256;26.960;2023-05-23T00:42:40;99394.99;;;13.46;100.00
11413;BME280;5762;43.256;26.960;2023-05-23T00:45:08;99392.03;;;13.45;100.00
11413;BME280;5762;43.256;26.960;2023-05-23T00:47:40;99391.39;;;13.48;100.00
11413;BME280;5762;43.256;26.960;2023-05-23T00:50:08;99392.30;;;13.52;100.00
11413;BME280;5762;43.256;26.960;2023-05-23T00:52:37;99391.74;;;13.52;100.00
11413;BME280;5762;43.256;26.960;2023-05-23T00:55:06;99394.38;;;13.55;100.00
11413;BME280;5762;43.256;26.960;2023-05-23T00:57:34;99382.77;;;13.60;100.00
11413;BME280;5762;43.256;26.960;2023-05-23T01:00:05;99379.16;;;13.62;100.00
11413;BME280;5762;43.256;26.960;2023-05-23T01:02:35;99383.09;;;13.59;100.00
11413;BME280;5762;43.256;26.960;2023-05-23T01:05:04;99379.01;;;13.59;100.00
11413;BME280;5762;43.256;26.960;2023-05-23T01:07:33;99378.51;;;13.51;100.00
11413;BME280;5762;43.256;26.960;2023-05-23T01:10:02;99377.59;;;13.53;100.00
11413;BME280;5762;43.256;26.960;2023-05-23T01:15:19;99378.03;;;13.49;100.00
11413;BME280;5762;43.256;26.960;2023-05-23T01:18:06;99377.03;;;13.53;100.00
11413;BME280;5762;43.256;26.960;2023-05-23T01:20:37;99379.19;;;13.54;100.00
11413;BME280;5762;43.256;26.960;2023-05-23T01:23:09;99379.01;;;13.59;100.00
11413;BME280;5762;43.256;26.960;2023-05-23T01:28:10;99369.73;;;13.60;100.00
11413;BME280;5762;43.256;26.960;2023-05-23T01:30:34;99368.05;;;13.61;100.00
11413;BME280;5762;43.256;26.960;2023-05-23T01:33:02;99374.04;;;13.61;100.00
11413;BME280;5762;43.256;26.960;2023-05-23T01:35:32;99375.16;;;13.60;100.00
11413;BME280;5762;43.256;26.960;2023-05-23T01:38:01;99385.86;;;13.65;100.00
11413;BME280;5762;43.256;26.960;2023-05-23T01:40:30;99382.91;;;13.64;100.00
11413;BME280;5762;43.256;26.960;2023-05-23T01:42:59;99390.53;;;13.56;100.00
11413;BME280;5762;43.256;26.960;2023-05-23T01:45:28;99391.66;;;13.55;100.00
11413;BME280;5762;43.256;26.960;2023-05-23T01:47:56;99395.62;;;13.51;100.00
11413;BME280;5762;43.256;26.960;2023-05-23T01:50:26;99390.91;;;13.46;100.00
11413;BME280;5762;43.256;26.960;2023-05-23T01:52:55;99394.34;;;13.49;100.00
11413;BME280;5762;43.256;26.960;2023-05-23T01:55:24;99388.82;;;13.51;100.00
11413;BME280;5762;43.256;26.960;2023-05-23T01:57:54;99387.31;;;13.62;100.00
11413;BME280;5762;43.256;26.960;2023-05-23T02:00:23;99391.63;;;13.63;100.00
11413;BME280;5762;43.256;26.960;2023-05-23T02:02:52;99384.56;;;13.71;100.00
11413;BME280;5762;43.256;26.960;2023-05-23T02:05:21;99386.05;;;13.89;100.00
11413;BME280;5762;43.256;26.960;2023-05-23T02:07:49;99380.05;;;14.04;100.00
11413;BME280;5762;43.256;26.960;2023-05-23T02:10:18;99374.23;;;14.15;100.00
11413;BME280;5762;43.256;26.960;2023-05-23T02:12:47;99361.94;;;14.29;100.00
11413;BME280;5762;43.256;26.960;2023-05-23T02:15:15;99362.41;;;14.46;100.00
11413;BME280;5762;43.256;26.960;2023-05-23T02:17:44;99358.03;;;14.60;100.00
11413;BME280;5762;43.256;26.960;2023-05-23T02:20:13;99348.48;;;14.81;100.00
11413;BME280;5762;43.256;26.960;2023-05-23T02:22:41;99331.02;;;14.94;100.00
11413;BME280;5762;43.256;26.960;2023-05-23T02:25:10;99324.36;;;15.09;100.00
11413;BME280;5762;43.256;26.960;2023-05-23T02:27:38;99317.23;;;15.23;100.00
11413;BME280;5762;43.256;26.960;2023-05-23T02:30:07;99306.99;;;15.14;100.00
11413;BME280;5762;43.256;26.960;2023-05-23T02:32:36;99314.12;;;14.61;100.00
11413;BME280;5762;43.256;26.960;2023-05-23T02:35:04;99319.38;;;14.19;100.00
11413;BME280;5762;43.256;26.960;2023-05-23T02:37:33;99327.84;;;13.96;100.00
11413;BME280;5762;43.256;26.960;2023-05-23T02:40:02;99336.38;;;13.86;100.00
11413;BME280;5762;43.256;26.960;2023-05-23T02:42:31;99343.18;;;13.86;100.00
11413;BME280;5762;43.256;26.960;2023-05-23T02:44:59;99349.47;;;13.93;100.00
11413;BME280;5762;43.256;26.960;2023-05-23T02:47:28;99354.61;;;14.15;100.00
11413;BME280;5762;43.256;26.960;2023-05-23T02:49:57;99349.95;;;14.36;100.00
11413;BME280;5762;43.256;26.960;2023-05-23T02:52:26;99347.47;;;14.58;100.00
11413;BME280;5762;43.256;26.960;2023-05-23T02:54:55;99342.58;;;14.91;100.00
11413;BME280;5762;43.256;26.960;2023-05-23T02:57:24;99341.83;;;15.02;100.00
11413;BME280;5762;43.256;26.960;2023-05-23T02:59:52;99330.51;;;15.31;100.00
11413;BME280;5762;43.256;26.960;2023-05-23T03:02:21;99320.75;;;15.42;100.00
11413;BME280;5762;43.256;26.960;2023-05-23T03:04:50;99312.95;;;15.59;100.00
11413;BME280;5762;43.256;26.960;2023-05-23T03:07:19;99309.97;;;15.76;100.00
11413;BME280;5762;43.256;26.960;2023-05-23T03:09:47;99298.94;;;15.85;100.00
11413;BME280;5762;43.256;26.960;2023-05-23T03:12:16;99300.30;;;15.91;100.00
11413;BME280;5762;43.256;26.960;2023-05-23T03:14:44;99296.95;;;15.97;100.00
11413;BME280;5762;43.256;26.960;2023-05-23T03:17:13;99307.00;;;15.45;100.00
11413;BME280;5762;43.256;26.960;2023-05-23T03:19:42;99319.70;;;15.10;100.00
11413;BME280;5762;43.256;26.960;2023-05-23T03:22:10;99326.37;;;14.88;100.00
11413;BME280;5762;43.256;26.960;2023-05-23T03:24:39;99340.35;;;14.66;100.00
11413;BME280;5762;43.256;26.960;2023-05-23T03:27:08;99339.30;;;14.58;100.00
11413;BME280;5762;43.256;26.960;2023-05-23T03:29:37;99347.23;;;14.51;100.00
11413;BME280;5762;43.256;26.960;2023-05-23T03:32:06;99360.48;;;14.47;100.00
11413;BME280;5762;43.256;26.960;2023-05-23T03:34:35;99367.66;;;14.57;100.00
11413;BME280;5762;43.256;26.960;2023-05-23T03:37:04;99373.84;;;14.66;100.00
11413;BME280;5762;43.256;26.960;2023-05-23T03:39:32;99374.23;;;14.77;100.00
11413;BME280;5762;43.256;26.960;2023-05-23T03:42:01;99370.50;;;14.82;100.00
11413;BME280;5762;43.256;26.960;2023-05-23T03:44:30;99371.55;;;14.89;100.00
11413;BME280;5762;43.256;26.960;2023-05-23T03:47:01;99367.64;;;14.78;100.00
11413;BME280;5762;43.256;26.960;2023-05-23T03:49:29;99367.31;;;14.80;100.00
11413;BME280;5762;43.256;26.960;2023-05-23T03:51:58;99379.37;;;14.91;100.00
11413;BME280;5762;43.256;26.960;2023-05-23T03:54:27;99377.05;;;15.07;100.00
11413;BME280;5762;43.256;26.960;2023-05-23T03:56:55;99373.55;;;15.13;100.00
11413;BME280;5762;43.256;26.960;2023-05-23T03:59:24;99375.38;;;15.21;100.00
11413;BME280;5762;43.256;26.960;2023-05-23T04:01:52;99374.38;;;15.38;100.00
11413;BME280;5762;43.256;26.960;2023-05-23T04:04:21;99369.39;;;15.46;100.00
11413;BME280;5762;43.256;26.960;2023-05-23T04:06:51;99372.39;;;15.59;100.00
11413;BME280;5762;43.256;26.960;2023-05-23T04:09:19;99371.70;;;15.68;100.00
11413;BME280;5762;43.256;26.960;2023-05-23T04:11:48;99364.88;;;15.81;100.00
11413;BME280;5762;43.256;26.960;2023-05-23T04:14:17;99358.38;;;15.97;100.00
11413;BME280;5762;43.256;26.960;2023-05-23T04:16:46;99353.48;;;16.03;100.00
11413;BME280;5762;43.256;26.960;2023-05-23T04:19:15;99340.83;;;16.23;100.00
11413;BME280;5762;43.256;26.960;2023-05-23T04:21:44;99334.38;;;16.43;100.00
11413;BME280;5762;43.256;26.960;2023-05-23T04:24:13;99321.25;;;16.55;100.00
11413;BME280;5762;43.256;26.960;2023-05-23T04:26:41;99317.91;;;16.67;100.00
11413;BME280;5762;43.256;26.960;2023-05-23T04:29:10;99308.28;;;16.80;100.00
11413;BME280;5762;43.256;26.960;2023-05-23T04:31:41;99307.81;;;16.84;100.00
11413;BME280;5762;43.256;26.960;2023-05-23T04:34:10;99301.61;;;16.93;100.00
11413;BME280;5762;43.256;26.960;2023-05-23T04:36:39;99299.39;;;16.98;100.00
11413;BME280;5762;43.256;26.960;2023-05-23T04:39:08;99305.36;;;17.10;100.00
11413;BME280;5762;43.256;26.960;2023-05-23T04:41:37;99299.86;;;17.16;100.00
11413;BME280;5762;43.256;26.960;2023-05-23T04:44:05;99307.32;;;17.25;100.00
11413;BME280;5762;43.256;26.960;2023-05-23T04:46:35;99309.42;;;17.16;100.00
11413;BME280;5762;43.256;26.960;2023-05-23T04:49:03;99307.41;;;17.29;100.00
11413;BME280;5762;43.256;26.960;2023-05-23T04:51:32;99318.59;;;17.39;100.00
11413;BME280;5762;43.256;26.960;2023-05-23T04:54:01;99313.56;;;17.41;100.00
11413;BME280;5762;43.256;26.960;2023-05-23T04:56:30;99311.00;;;17.49;100.00
11413;BME280;5762;43.256;26.960;2023-05-23T04:58:59;99310.95;;;17.70;100.00
11413;BME280;5762;43.256;26.960;2023-05-23T05:01:28;99315.37;;;17.59;100.00
11413;BME280;5762;43.256;26.960;2023-05-23T05:03:57;99313.95;;;17.50;100.00
11413;BME280;5762;43.256;26.960;2023-05-23T05:06:26;99322.13;;;17.56;100.00
11413;BME280;5762;43.256;26.960;2023-05-23T05:08:55;99317.89;;;17.58;100.00
11413;BME280;5762;43.256;26.960;2023-05-23T05:11:24;99319.84;;;17.83;100.00
11413;BME280;5762;43.256;26.960;2023-05-23T05:13:54;99321.58;;;18.26;100.00
11413;BME280;5762;43.256;26.960;2023-05-23T05:16:22;99312.27;;;18.79;100.00
11413;BME280;5762;43.256;26.960;2023-05-23T05:18:51;99308.42;;;18.93;100.00
11413;BME280;5762;43.256;26.960;2023-05-23T05:21:20;99309.43;;;18.95;100.00
11413;BME280;5762;43.256;26.960;2023-05-23T05:23:49;99307.60;;;19.25;100.00
11413;BME280;5762;43.256;26.960;2023-05-23T05:26:18;99313.78;;;19.09;100.00
11413;BME280;5762;43.256;26.960;2023-05-23T05:28:47;99315.44;;;19.36;100.00
11413;BME280;5762;43.256;26.960;2023-05-23T05:31:16;99317.24;;;19.38;100.00
11413;BME280;5762;43.256;26.960;2023-05-23T05:33:44;99318.48;;;19.54;100.00
11413;BME280;5762;43.256;26.960;2023-05-23T05:36:13;99312.84;;;19.47;100.00
11413;BME280;5762;43.256;26.960;2023-05-23T05:38:42;99312.76;;;19.40;100.00
11413;BME280;5762;43.256;26.960;2023-05-23T05:41:11;99314.33;;;19.64;100.00
11413;BME280;5762;43.256;26.960;2023-05-23T05:43:39;99307.81;;;19.75;100.00
11413;BME280;5762;43.256;26.960;2023-05-23T05:46:07;99313.16;;;19.78;100.00
11413;BME280;5762;43.256;26.960;2023-05-23T05:48:36;99321.39;;;19.78;100.00
11413;BME280;5762;43.256;26.960;2023-05-23T05:51:05;99313.23;;;19.68;100.00
11413;BME280;5762;43.256;26.960;2023-05-23T05:53:33;99320.03;;;19.65;100.00
11413;BME280;5762;43.256;26.960;2023-05-23T05:56:01;99318.76;;;19.59;100.00
11413;BME280;5762;43.256;26.960;2023-05-23T05:58:30;99318.04;;;19.75;100.00
11413;BME280;5762;43.256;26.960;2023-05-23T06:00:59;99321.97;;;19.78;100.00
11413;BME280;5762;43.256;26.960;2023-05-23T06:03:27;99322.77;;;20.04;100.00
11413;BME280;5762;43.256;26.960;2023-05-23T06:05:55;99318.56;;;20.14;100.00
11413;BME280;5762;43.256;26.960;2023-05-23T06:08:24;99316.39;;;20.14;100.00
11413;BME280;5762;43.256;26.960;2023-05-23T06:10:53;99312.91;;;20.17;100.00
11413;BME280;5762;43.256;26.960;2023-05-23T06:13:22;99317.17;;;20.27;100.00
11413;BME280;5762;43.256;26.960;2023-05-23T06:15:51;99314.42;;;20.27;100.00
11413;BME280;5762;43.256;26.960;2023-05-23T06:18:20;99310.35;;;20.31;100.00
11413;BME280;5762;43.256;26.960;2023-05-23T06:20:49;99312.89;;;20.43;100.00
11413;BME280;5762;43.256;26.960;2023-05-23T06:23:17;99315.87;;;20.48;100.00
11413;BME280;5762;43.256;26.960;2023-05-23T06:25:46;99324.63;;;20.57;100.00
11413;BME280;5762;43.256;26.960;2023-05-23T06:28:15;99322.97;;;20.65;100.00
11413;BME280;5762;43.256;26.960;2023-05-23T06:30:44;99321.30;;;20.74;100.00
11413;BME280;5762;43.256;26.960;2023-05-23T06:33:12;99322.80;;;20.68;100.00
11413;BME280;5762;43.256;26.960;2023-05-23T06:35:40;99316.72;;;20.68;100.00
11413;BME280;5762;43.256;26.960;2023-05-23T06:38:09;99317.70;;;20.53;100.00
11413;BME280;5762;43.256;26.960;2023-05-23T06:40:38;99319.38;;;20.61;100.00
11413;BME280;5762;43.256;26.960;2023-05-23T06:43:07;99323.05;;;20.72;100.00
11413;BME280;5762;43.256;26.960;2023-05-23T06:45:36;99316.59;;;20.74;100.00
11413;BME280;5762;43.256;26.960;2023-05-23T06:48:04;99313.10;;;20.81;100.00
11413;BME280;5762;43.256;26.960;2023-05-23T06:50:32;99307.55;;;20.94;100.00
11413;BME280;5762;43.256;26.960;2023-05-23T06:53:00;99305.25;;;21.00;100.00
11413;BME280;5762;43.256;26.960;2023-05-23T06:55:29;99309.30;;;20.93;100.00
11413;BME280;5762;43.256;26.960;2023-05-23T06:57:59;99299.27;;;21.11;100.00
11413;BME280;5762;43.256;26.960;2023-05-23T07:00:29;99299.89;;;21.18;100.00
11413;BME280;5762;43.256;26.960;2023-05-23T07:02:57;99301.95;;;21.04;100.00
11413;BME280;5762;43.256;26.960;2023-05-23T07:05:27;99296.83;;;21.02;100.00
11413;BME280;5762;43.256;26.960;2023-05-23T07:07:55;99309.11;;;21.16;100.00
11413;BME280;5762;43.256;26.960;2023-05-23T07:10:24;99311.40;;;21.47;100.00
11413;BME280;5762;43.256;26.960;2023-05-23T07:12:53;99308.56;;;21.64;100.00
11413;BME280;5762;43.256;26.960;2023-05-23T07:15:22;99303.75;;;21.54;100.00
11413;BME280;5762;43.256;26.960;2023-05-23T07:17:50;99294.12;;;21.54;100.00
11413;BME280;5762;43.256;26.960;2023-05-23T07:20:19;99304.72;;;21.48;100.00
11413;BME280;5762;43.256;26.960;2023-05-23T07:22:48;99300.09;;;21.35;100.00
11413;BME280;5762;43.256;26.960;2023-05-23T07:25:17;99296.17;;;21.20;100.00
11413;BME280;5762;43.256;26.960;2023-05-23T07:27:46;99294.81;;;21.40;100.00
11413;BME280;5762;43.256;26.960;2023-05-23T07:30:15;99289.31;;;21.40;100.00
11413;BME280;5762;43.256;26.960;2023-05-23T07:32:43;99300.20;;;21.53;100.00
11413;BME280;5762;43.256;26.960;2023-05-23T07:35:12;99292.00;;;21.33;100.00
11413;BME280;5762;43.256;26.960;2023-05-23T07:37:40;99301.75;;;21.23;100.00
11413;BME280;5762;43.256;26.960;2023-05-23T07:40:09;99300.78;;;21.25;100.00
11413;BME280;5762;43.256;26.960;2023-05-23T07:42:38;99307.20;;;20.99;100.00
11413;BME280;5762;43.256;26.960;2023-05-23T07:45:07;99301.09;;;21.20;100.00
11413;BME280;5762;43.256;26.960;2023-05-23T07:47:36;99302.64;;;21.18;100.00
11413;BME280;5762;43.256;26.960;2023-05-23T07:50:05;99300.63;;;20.91;100.00
11413;BME280;5762;43.256;26.960;2023-05-23T07:52:34;99302.36;;;21.06;100.00
11413;BME280;5762;43.256;26.960;2023-05-23T07:55:02;99298.00;;;21.22;100.00
11413;BME280;5762;43.256;26.960;2023-05-23T07:57:31;99300.80;;;21.53;100.00
11413;BME280;5762;43.256;26.960;2023-05-23T08:00:00;99295.61;;;21.40;100.00
11413;BME280;5762;43.256;26.960;2023-05-23T08:02:28;99303.93;;;21.48;100.00
11413;BME280;5762;43.256;26.960;2023-05-23T08:04:57;99298.22;;;21.47;100.00
11413;BME280;5762;43.256;26.960;2023-05-23T08:07:26;99303.08;;;21.40;100.00
11413;BME280;5762;43.256;26.960;2023-05-23T08:09:54;99298.61;;;21.04;100.00
11413;BME280;5762;43.256;26.960;2023-05-23T08:12:23;99294.00;;;20.95;100.00
11413;BME280;5762;43.256;26.960;2023-05-23T08:14:51;99297.20;;;21.01;100.00
11413;BME280;5762;43.256;26.960;2023-05-23T08:17:19;99292.21;;;20.93;100.00
11413;BME280;5762;43.256;26.960;2023-05-23T08:19:48;99299.13;;;20.77;100.00
11413;BME280;5762;43.256;26.960;2023-05-23T08:22:16;99296.17;;;20.59;100.00
11413;BME280;5762;43.256;26.960;2023-05-23T08:24:45;99287.72;;;20.74;100.00
11413;BME280;5762;43.256;26.960;2023-05-23T08:27:13;99292.22;;;21.14;100.00
11413;BME280;5762;43.256;26.960;2023-05-23T08:29:41;99294.31;;;21.07;100.00
11413;BME280;5762;43.256;26.960;2023-05-23T08:32:10;99283.09;;;20.86;100.00
11413;BME280;5762;43.256;26.960;2023-05-23T08:34:39;99291.64;;;21.18;100.00
11413;BME280;5762;43.256;26.960;2023-05-23T08:37:08;99290.86;;;21.37;100.00
11413;BME280;5762;43.256;26.960;2023-05-23T08:39:36;99289.38;;;21.51;100.00
11413;BME280;5762;43.256;26.960;2023-05-23T08:42:05;99289.27;;;21.95;100.00
11413;BME280;5762;43.256;26.960;2023-05-23T08:44:33;99283.13;;;22.23;100.00
11413;BME280;5762;43.256;26.960;2023-05-23T08:47:02;99288.27;;;22.28;100.00
11413;BME280;5762;43.256;26.960;2023-05-23T08:49:31;99284.95;;;22.32;100.00
11413;BME280;5762;43.256;26.960;2023-05-23T08:52:00;99284.14;;;22.80;100.00
11413;BME280;5762;43.256;26.960;2023-05-23T08:54:29;99287.51;;;22.87;100.00
11413;BME280;5762;43.256;26.960;2023-05-23T08:56:58;99291.63;;;22.80;100.00
11413;BME280;5762;43.256;26.960;2023-05-23T08:59:27;99288.87;;;22.80;100.00
11413;BME280;5762;43.256;26.960;2023-05-23T09:01:57;99292.03;;;22.82;100.00
11413;BME280;5762;43.256;26.960;2023-05-23T09:04:27;99290.49;;;23.16;100.00
11413;BME280;5762;43.256;26.960;2023-05-23T09:06:56;99290.20;;;22.72;100.00
11413;BME280;5762;43.256;26.960;2023-05-23T09:09:25;99295.08;;;22.52;100.00
11413;BME280;5762;43.256;26.960;2023-05-23T09:11:54;99292.13;;;22.61;100.00
11413;BME280;5762;43.256;26.960;2023-05-23T09:14:22;99287.30;;;22.93;100.00
11413;BME280;5762;43.256;26.960;2023-05-23T09:16:51;99275.70;;;23.18;100.00
11413;BME280;5762;43.256;26.960;2023-05-23T09:19:19;99281.41;;;23.44;100.00
11413;BME280;5762;43.256;26.960;2023-05-23T09:21:48;99277.66;;;23.46;100.00
11413;BME280;5762;43.256;26.960;2023-05-23T09:24:17;99281.42;;;23.19;100.00
11413;BME280;5762;43.256;26.960;2023-05-23T09:26:47;99283.94;;;22.90;100.00
11413;BME280;5762;43.256;26.960;2023-05-23T09:29:20;99285.23;;;22.61;100.00
11413;BME280;5762;43.256;26.960;2023-05-23T09:31:45;99281.18;;;22.90;100.00
11413;BME280;5762;43.256;26.960;2023-05-23T09:34:14;99274.30;;;22.83;100.00
11413;BME280;5762;43.256;26.960;2023-05-23T09:36:43;99276.41;;;22.76;100.00
11413;BME280;5762;43.256;26.960;2023-05-23T09:39:12;99277.00;;;22.76;100.00
11413;BME280;5762;43.256;26.960;2023-05-23T09:41:40;99280.99;;;22.96;100.00
11413;BME280;5762;43.256;26.960;2023-05-23T09:44:09;99279.17;;;22.76;100.00
11413;BME280;5762;43.256;26.960;2023-05-23T09:46:37;99285.83;;;22.61;100.00
11413;BME280;5762;43.256;26.960;2023-05-23T09:49:16;99280.98;;;22.26;100.00
11413;BME280;5762;43.256;26.960;2023-05-23T09:51:55;99276.55;;;22.03;100.00
11413;BME280;5762;43.256;26.960;2023-05-23T09:54:14;99281.45;;;21.69;100.00
11413;BME280;5762;43.256;26.960;2023-05-23T09:56:43;99269.59;;;21.62;100.00
11413;BME280;5762;43.256;26.960;2023-05-23T09:59:12;99269.67;;;21.72;100.00
11413;BME280;5762;43.256;26.960;2023-05-23T10:01:42;99267.63;;;21.97;100.00
11413;BME280;5762;43.256;26.960;2023-05-23T10:04:11;99272.02;;;22.01;100.00
11413;BME280;5762;43.256;26.960;2023-05-23T10:06:41;99274.00;;;21.73;100.00
11413;BME280;5762;43.256;26.960;2023-05-23T10:09:15;99273.55;;;21.64;100.00
11413;BME280;5762;43.256;26.960;2023-05-23T10:14:28;99268.42;;;21.63;100.00
11413;BME280;5762;43.256;26.960;2023-05-23T10:19:46;99267.77;;;22.22;100.00
11413;BME280;5762;43.256;26.960;2023-05-23T10:22:12;99260.84;;;22.11;100.00
11413;BME280;5762;43.256;26.960;2023-05-23T10:24:43;99272.72;;;22.29;100.00
11413;BME280;5762;43.256;26.960;2023-05-23T10:27:12;99273.11;;;22.28;100.00
11413;BME280;5762;43.256;26.960;2023-05-23T10:29:40;99270.37;;;22.31;100.00
11413;BME280;5762;43.256;26.960;2023-05-23T10:32:09;99266.98;;;22.18;100.00
11413;BME280;5762;43.256;26.960;2023-05-23T10:34:40;99268.41;;;22.35;100.00
11413;BME280;5762;43.256;26.960;2023-05-23T10:37:11;99266.61;;;22.26;100.00
11413;BME280;5762;43.256;26.960;2023-05-23T10:39:41;99266.05;;;21.96;100.00
11413;BME280;5762;43.256;26.960;2023-05-23T10:45:12;99270.81;;;21.68;100.00
11413;BME280;5762;43.256;26.960;2023-05-23T10:47:27;99267.63;;;21.62;100.00
11413;BME280;5762;43.256;26.960;2023-05-23T10:49:55;99275.28;;;21.32;100.00
11413;BME280;5762;43.256;26.960;2023-05-23T10:52:24;99267.08;;;20.95;100.00
11413;BME280;5762;43.256;26.960;2023-05-23T10:54:54;99269.02;;;20.54;100.00
11413;BME280;5762;43.256;26.960;2023-05-23T10:57:26;99269.83;;;20.37;100.00
11413;BME280;5762;43.256;26.960;2023-05-23T10:59:54;99281.73;;;20.19;100.00
11413;BME280;5762;43.256;26.960;2023-05-23T11:02:27;99284.90;;;19.91;100.00
11413;BME280;5762;43.256;26.960;2023-05-23T11:05:28;99286.48;;;19.92;100.00
11413;BME280;5762;43.256;26.960;2023-05-23T11:07:31;99284.05;;;19.87;100.00
11413;BME280;5762;43.256;26.960;2023-05-23T11:10:03;99279.56;;;20.18;100.00
11413;BME280;5762;43.256;26.960;2023-05-23T11:12:39;99287.75;;;20.45;100.00
11413;BME280;5762;43.256;26.960;2023-05-23T11:15:18;99281.63;;;20.58;100.00
11413;BME280;5762;43.256;26.960;2023-05-23T11:17:52;99281.42;;;20.74;100.00
11413;BME280;5762;43.256;26.960;2023-05-23T11:20:18;99273.12;;;20.91;100.00
11413;BME280;5762;43.256;26.960;2023-05-23T11:23:10;99270.99;;;20.94;100.00
11413;BME280;5762;43.256;26.960;2023-05-23T11:25:38;99264.36;;;20.98;100.00
11413;BME280;5762;43.256;26.960;2023-05-23T11:27:52;99266.17;;;21.24;100.00
11413;BME280;5762;43.256;26.960;2023-05-23T11:30:22;99264.21;;;21.25;100.00
11413;BME280;5762;43.256;26.960;2023-05-23T11:32:51;99263.89;;;21.33;100.00
11413;BME280;5762;43.256;26.960;2023-05-23T11:35:20;99254.57;;;21.52;100.00
11413;BME280;5762;43.256;26.960;2023-05-23T11:37:50;99263.44;;;21.83;100.00
11413;BME280;5762;43.256;26.960;2023-05-23T11:40:25;99273.01;;;21.72;100.00
11413;BME280;5762;43.256;26.960;2023-05-23T11:42:55;99276.72;;;21.39;100.00
11413;BME280;5762;43.256;26.960;2023-05-23T11:45:24;99287.76;;;20.61;100.00
11413;BME280;5762;43.256;26.960;2023-05-23T11:47:53;99269.31;;;19.98;100.00
11413;BME280;5762;43.256;26.960;2023-05-23T11:50:21;99280.50;;;19.33;100.00
11413;BME280;5762;43.256;26.960;2023-05-23T11:52:53;99301.31;;;18.50;100.00
11413;BME280;5762;43.256;26.960;2023-05-23T11:55:22;99312.23;;;18.02;100.00
11413;BME280;5762;43.256;26.960;2023-05-23T11:57:54;99311.47;;;17.76;100.00
11413;BME280;5762;43.256;26.960;2023-05-23T12:00:20;99316.08;;;17.56;100.00
11413;BME280;5762;43.256;26.960;2023-05-23T12:02:49;99327.46;;;17.42;100.00
11413;BME280;5762;43.256;26.960;2023-05-23T12:05:18;99338.72;;;17.47;100.00
11413;BME280;5762;43.256;26.960;2023-05-23T12:07:47;99346.26;;;17.44;100.00
11413;BME280;5762;43.256;26.960;2023-05-23T12:10:16;99355.89;;;17.54;100.00
11413;BME280;5762;43.256;26.960;2023-05-23T12:12:45;99361.41;;;17.63;100.00
11413;BME280;5762;43.256;26.960;2023-05-23T12:15:14;99365.23;;;17.84;100.00
11413;BME280;5762;43.256;26.960;2023-05-23T12:17:44;99364.78;;;17.98;100.00
11413;BME280;5762;43.256;26.960;2023-05-23T12:20:13;99378.23;;;18.22;100.00
11413;BME280;5762;43.256;26.960;2023-05-23T12:22:42;99381.87;;;18.36;100.00
11413;BME280;5762;43.256;26.960;2023-05-23T12:25:10;99369.45;;;18.42;100.00
11413;BME280;5762;43.256;26.960;2023-05-23T12:27:40;99371.45;;;18.61;100.00
11413;BME280;5762;43.256;26.960;2023-05-23T12:30:10;99366.83;;;18.65;100.00
11413;BME280;5762;43.256;26.960;2023-05-23T12:32:39;99357.21;;;18.84;100.00
11413;BME280;5762;43.256;26.960;2023-05-23T12:35:07;99351.42;;;18.99;100.00
11413;BME280;5762;43.256;26.960;2023-05-23T12:37:37;99351.59;;;19.19;100.00
11413;BME280;5762;43.256;26.960;2023-05-23T12:40:13;99343.98;;;19.32;100.00
11413;BME280;5762;43.256;26.960;2023-05-23T12:45:15;99345.90;;;19.64;100.00
11413;BME280;5762;43.256;26.960;2023-05-23T12:47:42;99329.76;;;19.72;100.00
11413;BME280;5762;43.256;26.960;2023-05-23T12:50:11;99326.57;;;19.83;100.00
11413;BME280;5762;43.256;26.960;2023-05-23T12:52:39;99326.57;;;19.83;100.00
11413;BME280;5762;43.256;26.960;2023-05-23T12:55:08;99307.87;;;19.79;100.00
11413;BME280;5762;43.256;26.960;2023-05-23T12:57:37;99303.70;;;19.75;100.00
11413;BME280;5762;43.256;26.960;2023-05-23T13:00:06;99292.20;;;19.53;100.00
11413;BME280;5762;43.256;26.960;2023-05-23T13:02:34;99294.52;;;19.41;100.00
11413;BME280;5762;43.256;26.960;2023-05-23T13:05:03;99284.03;;;19.11;100.00
11413;BME280;5762;43.256;26.960;2023-05-23T13:07:32;99288.99;;;19.02;100.00
11413;BME280;5762;43.256;26.960;2023-05-23T13:10:01;99295.38;;;18.87;100.00
11413;BME280;5762;43.256;26.960;2023-05-23T13:12:29;99299.56;;;18.81;100.00
11413;BME280;5762;43.256;26.960;2023-05-23T13:14:58;99310.96;;;18.83;100.00